Time;durP1;ratioP1;P1;durP2;ratioP2;P2;SDS_P1;SDS_P2;PMS_P1;PMS_P2;Temp;Humidity;BMP_temperature;BMP_pressure;BME280_temperature;BME280_humidity;BME280_pressure;Samples;Min_cycle;Max_cycle;Signal;HPM_P1;HPM_P2
2022/04/13 04:01:00;;;;;;;9.55;8.33;;;;;;;;;;766547;77;26153;-75
2022/04/13 04:02:07;;;;;;;9.43;7.90;;;;;;;;;;779809;76;26256;-74
2022/04/13 04:03:11;;;;;;;8.70;7.83;;;;;;;;;;779948;76;26754;-73
2022/04/13 04:04:18;;;;;;;12.63;9.43;;;;;;;;;;779994;76;26680;-74
2022/04/13 04:05:21;;;;;;;10.15;9.10;;;;;;;;;;780241;76;26305;-74
2022/04/13 04:06:24;;;;;;;13.00;9.78;;;;;;;;;;779971;76;26240;-74
2022/04/13 04:07:27;;;;;;;11.45;9.78;;;;;;;;;;767030;77;26232;-74
2022/04/13 04:12:00;;;;;;;12.47;9.85;;;;;;;;;;749388;78;26256;-74
2022/04/13 04:13:04;;;;;;;13.90;10.68;;;;;;;;;;750155;78;26336;-75
2022/04/13 04:14:07;;;;;;;13.00;11.10;;;;;;;;;;752181;77;26273;-73
2022/04/13 04:19:56;;;;;;;14.60;10.28;;;;;;;;;;782643;74;26305;-74
2022/04/13 04:20:59;;;;;;;11.15;10.03;;;;;;;;;;762771;77;26258;-74
2022/04/13 04:22:02;;;;;;;11.95;9.55;;;;;;;;;;759774;77;26320;-74
2022/04/13 04:23:05;;;;;;;13.68;10.58;;;;;;;;;;760007;77;26253;-73
2022/04/13 04:24:08;;;;;;;12.82;9.93;;;;;;;;;;758328;77;26275;-73
2022/04/13 04:25:14;;;;;;;10.40;9.38;;;;;;;;;;753351;77;26261;-73
2022/04/13 04:26:42;;;;;;;12.68;9.08;;;;;;;;;;756569;77;26329;-74
2022/04/13 04:30:53;;;;;;;10.13;8.65;;;;;;;;;;773211;76;26270;-74
2022/04/13 04:32:00;;;;;;;13.35;9.55;;;;;;;;;;776771;75;26300;-73
2022/04/13 04:33:14;;;;;;;10.95;9.40;;;;;;;;;;773418;76;26242;-74
2022/04/13 04:40:17;;;;;;;11.90;10.38;;;;;;;;;;773282;76;26209;-73
2022/04/13 04:41:20;;;;;;;17.87;10.72;;;;;;;;;;761158;75;26339;-73
2022/04/13 04:42:23;;;;;;;12.05;10.23;;;;;;;;;;765640;76;26298;-71
2022/04/13 04:43:26;;;;;;;19.50;10.70;;;;;;;;;;763559;76;26300;-75
2022/04/13 04:44:29;;;;;;;13.08;11.00;;;;;;;;;;774891;76;26296;-74
2022/04/13 04:45:32;;;;;;;12.13;10.85;;;;;;;;;;776659;76;26295;-74
2022/04/13 04:46:36;;;;;;;17.65;10.15;;;;;;;;;;773541;76;26300;-72
2022/04/13 04:52:28;;;;;;;14.20;11.53;;;;;;;;;;778424;75;26680;-73
2022/04/13 04:53:31;;;;;;;14.80;12.40;;;;;;;;;;777563;75;26246;-72
2022/04/13 04:54:34;;;;;;;15.30;12.05;;;;;;;;;;780061;75;26304;-72
2022/04/13 04:55:38;;;;;;;13.75;12.05;;;;;;;;;;781085;75;26682;-74
2022/04/13 04:56:41;;;;;;;18.95;12.45;;;;;;;;;;779032;75;26253;-72
2022/04/13 05:00:36;;;;;;;15.70;12.33;;;;;;;;;;771162;76;27393;-73
2022/04/13 05:01:39;;;;;;;19.67;13.98;;;;;;;;;;777139;76;26261;-74
2022/04/13 05:05:47;;;;;;;15.43;12.40;;;;;;;;;;742849;78;26282;-73
2022/04/13 05:06:50;;;;;;;16.15;13.15;;;;;;;;;;737758;79;26322;-72
2022/04/13 05:13:50;;;;;;;16.85;12.45;;;;;;;;;;798755;73;26282;-73
2022/04/13 05:14:55;;;;;;;15.58;12.15;;;;;;;;;;797831;74;26244;-72
2022/04/13 05:15:59;;;;;;;15.35;12.80;;;;;;;;;;789090;74;26653;-73
2022/04/13 05:17:02;;;;;;;14.07;12.55;;;;;;;;;;785306;74;26252;-73
2022/04/13 05:19:52;;;;;;;13.68;12.10;;;;;;;;;;750501;76;26235;-72
2022/04/13 05:20:55;;;;;;;13.72;12.30;;;;;;;;;;741057;78;26885;-73
2022/04/13 05:21:58;;;;;;;19.27;12.53;;;;;;;;;;767032;76;26271;-72
2022/04/13 05:23:01;;;;;;;16.12;12.07;;;;;;;;;;763243;77;26318;-71
2022/04/13 05:24:05;;;;;;;13.60;12.10;;;;;;;;;;760941;75;26276;-72
2022/04/13 05:25:09;;;;;;;23.92;19.02;;;;;;;;;;770087;76;26306;-72
2022/04/13 05:26:18;;;;;;;27.00;19.92;;;;;;;;;;774116;74;26308;-73
2022/04/13 05:30:58;;;;;;;16.93;12.18;;;;;;;;;;750301;75;26224;-77
2022/04/13 05:32:02;;;;;;;12.90;11.70;;;;;;;;;;761335;76;26785;-73
2022/04/13 05:33:06;;;;;;;17.07;12.10;;;;;;;;;;761452;76;26640;-76
2022/04/13 05:34:09;;;;;;;13.95;12.10;;;;;;;;;;791730;74;26345;-72
2022/04/13 05:35:12;;;;;;;13.20;11.80;;;;;;;;;;790513;75;26231;-71
2022/04/13 05:36:15;;;;;;;14.07;12.58;;;;;;;;;;795550;73;26283;-72
2022/04/13 05:40:31;;;;;;;13.68;10.53;;;;;;;;;;773451;76;26245;-71
2022/04/13 05:41:35;;;;;;;12.15;10.85;;;;;;;;;;772699;76;26456;-71
2022/04/13 05:42:38;;;;;;;11.93;10.68;;;;;;;;;;770406;76;26251;-73
2022/04/13 05:43:41;;;;;;;17.35;11.30;;;;;;;;;;767715;76;26257;-74
2022/04/13 05:44:45;;;;;;;14.80;11.57;;;;;;;;;;773766;76;26251;-70
2022/04/13 05:45:48;;;;;;;17.50;12.25;;;;;;;;;;770497;76;26371;-74
2022/04/13 05:46:52;;;;;;;14.20;12.45;;;;;;;;;;769188;76;26254;-73
2022/04/13 05:49:30;;;;;;;13.70;11.50;;;;;;;;;;777707;75;26302;-70
2022/04/13 06:03:36;;;;;;;11.20;10.10;;;;;;;;;;755916;77;26276;-77
2022/04/13 06:04:41;;;;;;;11.35;10.15;;;;;;;;;;755215;77;26355;-75
2022/04/13 06:05:48;;;;;;;11.55;10.35;;;;;;;;;;757816;77;26334;-75
2022/04/13 06:12:47;;;;;;;10.38;9.38;;;;;;;;;;778470;75;26639;-76
2022/04/13 06:13:50;;;;;;;9.78;8.75;;;;;;;;;;779948;75;26253;-75
2022/04/13 06:14:55;;;;;;;10.00;9.05;;;;;;;;;;777779;75;26702;-73
2022/04/13 06:15:58;;;;;;;11.53;10.28;;;;;;;;;;778129;75;26312;-75
2022/04/13 06:17:01;;;;;;;13.45;11.10;;;;;;;;;;780416;75;26307;-74
2022/04/13 06:21:29;;;;;;;13.98;10.55;;;;;;;;;;780939;75;26177;-72
2022/04/13 06:22:32;;;;;;;13.15;10.72;;;;;;;;;;779233;75;26260;-73
2022/04/13 06:23:36;;;;;;;16.55;13.60;;;;;;;;;;777006;76;26245;-74
2022/04/13 06:24:40;;;;;;;18.05;16.10;;;;;;;;;;782027;76;26686;-74
2022/04/13 06:25:43;;;;;;;15.28;13.38;;;;;;;;;;781386;75;26670;-73
2022/04/13 06:26:46;;;;;;;15.32;12.13;;;;;;;;;;778361;75;26257;-74
2022/04/13 06:34:45;;;;;;;15.63;11.15;;;;;;;;;;765609;76;26702;-74
2022/04/13 06:35:48;;;;;;;12.30;11.00;;;;;;;;;;760465;77;26244;-75
2022/04/13 06:50:55;;;;;;;11.70;9.88;;;;;;;;;;765145;76;26673;-76
2022/04/13 06:51:58;;;;;;;10.72;9.65;;;;;;;;;;765618;76;26787;-76
2022/04/13 06:53:01;;;;;;;10.43;9.10;;;;;;;;;;767233;76;26641;-74
2022/04/13 06:54:05;;;;;;;14.28;9.43;;;;;;;;;;766732;76;26261;-75
2022/04/13 06:55:09;;;;;;;11.80;9.73;;;;;;;;;;765368;75;26280;-74
2022/04/13 06:56:12;;;;;;;9.90;9.00;;;;;;;;;;760970;76;26335;-74
2022/04/13 06:57:15;;;;;;;9.85;8.75;;;;;;;;;;765817;76;26670;-75
2022/04/13 06:58:19;;;;;;;16.23;10.03;;;;;;;;;;768986;75;26218;-74
2022/04/13 06:59:22;;;;;;;13.75;9.43;;;;;;;;;;765472;75;26257;-74
2022/04/13 07:00:27;;;;;;;12.70;11.12;;;;;;;;;;765801;75;26662;-73
2022/04/13 07:01:30;;;;;;;14.47;12.98;;;;;;;;;;762324;76;26741;-74
2022/04/13 07:02:35;;;;;;;12.28;10.70;;;;;;;;;;762755;76;26828;-74
2022/04/13 07:03:40;;;;;;;12.75;10.30;;;;;;;;;;757977;76;26276;-74
2022/04/13 07:04:44;;;;;;;11.60;10.40;;;;;;;;;;765469;76;26267;-74
2022/04/13 07:05:48;;;;;;;11.05;9.65;;;;;;;;;;760993;75;26249;-74
2022/04/13 07:19:09;;;;;;;11.45;10.18;;;;;;;;;;776925;74;26708;-74
2022/04/13 07:20:13;;;;;;;12.03;10.85;;;;;;;;;;775655;75;26246;-74
2022/04/13 07:21:16;;;;;;;12.45;11.25;;;;;;;;;;782223;75;26343;-74
2022/04/13 07:22:19;;;;;;;11.85;10.63;;;;;;;;;;779328;74;26741;-74
2022/04/13 07:23:22;;;;;;;11.60;10.40;;;;;;;;;;780067;74;26304;-74
2022/04/13 07:24:25;;;;;;;12.23;10.93;;;;;;;;;;776898;75;26304;-74
2022/04/13 07:25:32;;;;;;;12.15;10.40;;;;;;;;;;782770;73;26224;-75
2022/04/13 07:30:48;;;;;;;11.78;10.68;;;;;;;;;;803277;73;26634;-72
2022/04/13 07:31:51;;;;;;;14.70;10.70;;;;;;;;;;803203;73;26236;-72
2022/04/13 07:33:59;;;;;;;10.72;9.40;;;;;;;;;;778768;73;26288;-73
2022/04/13 07:35:05;;;;;;;10.40;9.40;;;;;;;;;;805658;73;26705;-73
2022/04/13 07:36:08;;;;;;;12.15;9.50;;;;;;;;;;789685;74;26233;-75
2022/04/13 07:39:05;;;;;;;14.55;9.83;;;;;;;;;;776574;74;26257;-72
2022/04/13 07:40:17;;;;;;;11.60;9.50;;;;;;;;;;765058;76;26315;-72
2022/04/13 07:41:17;;;;;;;10.78;9.75;;;;;;;;;;753659;77;26504;-72
2022/04/13 07:42:22;;;;;;;11.40;10.05;;;;;;;;;;755352;77;26710;-72
2022/04/13 07:43:31;;;;;;;11.65;9.73;;;;;;;;;;753182;77;26226;-72
2022/04/13 07:44:33;;;;;;;10.58;9.43;;;;;;;;;;751795;78;26404;-73
2022/04/13 07:45:43;;;;;;;11.22;9.50;;;;;;;;;;758838;76;26397;-75
2022/04/13 07:50:04;;;;;;;9.30;8.38;;;;;;;;;;774962;76;26181;-78
2022/04/13 07:51:10;;;;;;;9.97;8.43;;;;;;;;;;775249;76;26237;-75
2022/04/13 07:52:19;;;;;;;9.47;8.43;;;;;;;;;;774157;76;26847;-75
2022/04/13 07:53:29;;;;;;;9.83;8.78;;;;;;;;;;773067;76;27355;-76
2022/04/13 07:54:48;;;;;;;9.37;8.50;;;;;;;;;;765434;77;26267;-75
2022/04/13 07:55:57;;;;;;;10.13;9.03;;;;;;;;;;770707;76;26509;-73
2022/04/13 07:58:34;;;;;;;11.40;9.90;;;;;;;;;;819120;72;26503;-76
2022/04/13 07:59:49;;;;;;;10.70;9.60;;;;;;;;;;792184;75;26517;-74
2022/04/13 08:00:58;;;;;;;11.77;9.83;;;;;;;;;;810596;72;26489;-74
2022/04/13 08:02:10;;;;;;;11.40;9.10;;;;;;;;;;808475;72;26874;-75
2022/04/13 08:03:20;;;;;;;10.60;9.60;;;;;;;;;;807203;72;26600;-76
2022/04/13 08:06:02;;;;;;;9.33;8.40;;;;;;;;;;799912;73;26515;-73
2022/04/13 08:21:12;;;;;;;8.93;8.00;;;;;;;;;;777754;76;26515;-75
2022/04/13 08:22:19;;;;;;;8.90;8.10;;;;;;;;;;768404;76;26273;-78
2022/04/13 08:23:30;;;;;;;9.37;8.53;;;;;;;;;;766519;74;26555;-75
2022/04/13 08:24:38;;;;;;;11.40;8.50;;;;;;;;;;771397;76;26933;-73
2022/04/13 08:25:45;;;;;;;9.53;8.63;;;;;;;;;;763558;76;26920;-74
2022/04/13 08:30:08;;;;;;;9.60;8.77;;;;;;;;;;792809;73;26477;-75
2022/04/13 08:31:14;;;;;;;8.53;7.77;;;;;;;;;;793223;73;26971;-74
2022/04/13 08:34:08;;;;;;;8.37;7.67;;;;;;;;;;792450;73;26551;-75
2022/04/13 08:35:13;;;;;;;8.57;7.77;;;;;;;;;;772689;76;26490;-75
2022/04/13 08:40:55;;;;;;;9.00;8.10;;;;;;;;;;777660;76;26311;-75
2022/04/13 08:42:00;;;;;;;8.60;7.30;;;;;;;;;;780053;76;26486;-75
2022/04/13 08:43:10;;;;;;;7.43;6.80;;;;;;;;;;777640;75;26929;-74
2022/04/13 08:44:22;;;;;;;6.50;6.00;;;;;;;;;;771867;76;26527;-74
2022/04/13 08:45:50;;;;;;;7.00;6.40;;;;;;;;;;773906;76;26985;-74
2022/04/13 08:55:41;;;;;;;8.00;7.27;;;;;;;;;;745825;77;26263;-75
2022/04/13 08:58:41;;;;;;;7.77;7.17;;;;;;;;;;725970;81;27028;-75
2022/04/13 08:59:52;;;;;;;8.17;7.37;;;;;;;;;;732858;80;26672;-74
2022/04/13 09:13:40;;;;;;;17.13;15.43;;;;;;;;;;719984;77;26572;-73
2022/04/13 09:15:04;;;;;;;16.90;15.30;;;;;;;;;;745377;79;26641;-72
2022/04/13 09:19:46;;;;;;;10.57;8.00;;;;;;;;;;775768;75;27037;-71
2022/04/13 09:21:05;;;;;;;7.43;6.83;;;;;;;;;;758750;76;26553;-72
2022/04/13 09:22:01;;;;;;;8.47;7.67;;;;;;;;;;751135;76;27001;-71
2022/04/13 09:23:26;;;;;;;7.67;7.00;;;;;;;;;;775361;76;26667;-73
2022/04/13 09:24:41;;;;;;;7.80;7.10;;;;;;;;;;777400;76;27065;-73
2022/04/13 09:28:59;;;;;;;8.20;7.50;;;;;;;;;;776839;76;26640;-72
2022/04/13 09:30:09;;;;;;;8.07;7.27;;;;;;;;;;770174;75;26604;-71
2022/04/13 09:31:32;;;;;;;8.47;7.77;;;;;;;;;;773033;76;27019;-70
2022/04/13 09:32:39;;;;;;;7.80;6.97;;;;;;;;;;772514;76;26631;-70
2022/04/13 09:34:02;;;;;;;7.77;7.07;;;;;;;;;;761958;76;26598;-72
2022/04/13 09:35:19;;;;;;;8.00;7.30;;;;;;;;;;770570;76;26620;-72
2022/04/13 09:39:50;;;;;;;9.40;7.90;;;;;;;;;;787864;74;27046;-72
2022/04/13 09:53:36;;;;;;;8.97;8.07;;;;;;;;;;774327;76;26623;-72
2022/04/13 09:54:47;;;;;;;8.17;7.47;;;;;;;;;;757327;76;26555;-72
2022/04/13 10:01:13;;;;;;;5.63;5.00;;;;;;;;;;792887;74;26591;-72
2022/04/13 10:02:18;;;;;;;5.40;5.00;;;;;;;;;;774631;76;27044;-70
2022/04/13 10:03:37;;;;;;;6.10;5.60;;;;;;;;;;792435;74;26658;-72
2022/04/13 10:04:41;;;;;;;5.93;5.43;;;;;;;;;;773234;76;26604;-70
2022/04/13 10:06:06;;;;;;;5.10;4.70;;;;;;;;;;789029;75;26689;-73
2022/04/13 10:14:05;;;;;;;5.60;5.10;;;;;;;;;;723568;81;26670;-72
2022/04/13 10:15:13;;;;;;;5.53;5.13;;;;;;;;;;727723;81;27134;-71
2022/04/13 10:20:06;;;;;;;5.17;4.77;;;;;;;;;;746867;79;26654;-71
2022/04/13 10:21:11;;;;;;;5.97;5.40;;;;;;;;;;763565;77;26833;-71
2022/04/13 10:22:16;;;;;;;5.80;5.30;;;;;;;;;;763575;77;26668;-71
2022/04/13 10:23:21;;;;;;;5.77;5.27;;;;;;;;;;757256;77;27217;-71
2022/04/13 10:24:29;;;;;;;5.93;5.43;;;;;;;;;;757447;77;26725;-70
2022/04/13 10:28:05;;;;;;;7.27;6.60;;;;;;;;;;707943;83;27205;-71
2022/04/13 10:29:10;;;;;;;6.97;6.43;;;;;;;;;;718404;80;26919;-71
2022/04/13 10:30:31;;;;;;;5.90;5.43;;;;;;;;;;758730;77;26864;-71
2022/04/13 10:42:39;;;;;;;5.67;5.17;;;;;;;;;;762692;77;27291;-73
2022/04/13 10:43:45;;;;;;;5.70;5.30;;;;;;;;;;753617;77;27320;-72
2022/04/13 10:45:07;;;;;;;6.13;5.53;;;;;;;;;;753090;78;26858;-70
2022/04/13 10:52:47;;;;;;;6.13;5.53;;;;;;;;;;710707;82;27040;-75
2022/04/13 10:54:02;;;;;;;6.43;5.83;;;;;;;;;;715512;82;26579;-74
2022/04/13 10:55:12;;;;;;;6.00;5.50;;;;;;;;;;716001;83;26707;-75
2022/04/13 10:58:35;;;;;;;8.03;5.47;;;;;;;;;;719895;81;26466;-74
2022/04/13 10:59:44;;;;;;;6.60;5.60;;;;;;;;;;710221;82;26761;-76
2022/04/13 11:32:05;;;;;;;6.13;5.53;;;;;;;;;;782582;74;26209;-74
2022/04/13 12:19:17;;;;;;;4.80;3.60;;;;;;;;;;758264;75;26392;-76
2022/04/13 12:21:55;;;;;;;4.20;3.50;;;;;;;;;;760039;77;26620;-74
2022/04/13 12:23:25;;;;;;;3.70;3.40;;;;;;;;;;802805;72;26498;-75
2022/04/13 12:24:59;;;;;;;3.30;3.00;;;;;;;;;;792805;74;26564;-75
2022/04/13 12:28:04;;;;;;;3.50;3.30;;;;;;;;;;780664;75;26396;-74
2022/04/13 12:29:22;;;;;;;3.97;3.67;;;;;;;;;;780182;75;26858;-74
2022/04/13 12:30:29;;;;;;;3.63;3.33;;;;;;;;;;774361;74;26850;-73
2022/04/13 12:31:41;;;;;;;10.60;9.60;;;;;;;;;;781860;74;26841;-76
2022/04/13 12:32:48;;;;;;;34.17;24.50;;;;;;;;;;780811;75;26484;-76
2022/04/13 12:33:55;;;;;;;59.83;43.80;;;;;;;;;;779416;75;26903;-73
2022/04/13 12:38:24;;;;;;;5.70;5.20;;;;;;;;;;786729;74;26564;-73
2022/04/13 12:39:29;;;;;;;5.33;4.83;;;;;;;;;;792826;74;26349;-73
2022/04/13 12:40:36;;;;;;;4.07;3.77;;;;;;;;;;776945;75;26371;-72
2022/04/13 12:41:39;;;;;;;4.50;3.60;;;;;;;;;;791596;74;26416;-73
2022/04/13 12:42:43;;;;;;;3.83;3.30;;;;;;;;;;785245;75;26375;-72
2022/04/13 12:43:54;;;;;;;4.60;4.10;;;;;;;;;;787570;74;26471;-73
2022/04/13 12:48:11;;;;;;;3.43;3.20;;;;;;;;;;793768;74;26457;-71
2022/04/13 12:49:25;;;;;;;3.77;3.57;;;;;;;;;;798978;73;26468;-71
2022/04/13 12:50:29;;;;;;;3.80;3.50;;;;;;;;;;796106;73;26456;-72
2022/04/13 12:51:35;;;;;;;4.20;3.80;;;;;;;;;;791131;73;26549;-72
2022/04/13 12:52:44;;;;;;;4.80;4.27;;;;;;;;;;789888;74;26922;-73
2022/04/13 12:53:54;;;;;;;3.93;3.63;;;;;;;;;;794476;73;26604;-72
2022/04/13 13:02:59;;;;;;;3.73;3.43;;;;;;;;;;762143;77;26372;-71
2022/04/13 13:09:04;;;;;;;3.87;3.57;;;;;;;;;;758286;76;26320;-72
2022/04/13 13:10:13;;;;;;;29.43;14.63;;;;;;;;;;738693;79;26390;-73
2022/04/13 13:11:16;;;;;;;34.23;20.87;;;;;;;;;;757289;77;26699;-72
2022/04/13 13:12:22;;;;;;;39.83;23.10;;;;;;;;;;755992;77;26593;-73
2022/04/13 13:13:28;;;;;;;22.60;16.47;;;;;;;;;;758740;77;26460;-75
2022/04/13 13:14:38;;;;;;;10.57;8.07;;;;;;;;;;760760;77;26452;-74
2022/04/13 13:15:45;;;;;;;6.17;5.57;;;;;;;;;;757856;77;26991;-74
2022/04/13 13:16:54;;;;;;;4.40;4.10;;;;;;;;;;751665;78;26974;-73
2022/04/13 13:18:16;;;;;;;3.70;3.40;;;;;;;;;;752878;77;26640;-72
2022/04/13 13:19:25;;;;;;;3.80;3.50;;;;;;;;;;752406;76;26644;-72
2022/04/13 13:20:38;;;;;;;3.80;3.50;;;;;;;;;;745717;77;26493;-74
2022/04/13 13:22:03;;;;;;;3.50;3.30;;;;;;;;;;751712;77;27079;-72
2022/04/13 13:23:26;;;;;;;3.23;3.00;;;;;;;;;;746754;77;26998;-71
2022/04/13 13:24:41;;;;;;;3.40;3.20;;;;;;;;;;723340;80;26306;-72
2022/04/13 13:25:59;;;;;;;3.73;3.27;;;;;;;;;;752023;76;26503;-72
2022/04/13 13:27:08;;;;;;;3.40;3.20;;;;;;;;;;769503;76;26552;-72
2022/04/13 13:28:17;;;;;;;4.80;3.80;;;;;;;;;;768953;76;26877;-71
2022/04/13 13:29:29;;;;;;;4.77;3.57;;;;;;;;;;749880;77;26550;-72
2022/04/13 13:30:41;;;;;;;3.50;3.27;;;;;;;;;;752568;76;26936;-72
2022/04/13 13:31:55;;;;;;;3.50;3.20;;;;;;;;;;763963;76;26478;-74
2022/04/13 13:33:03;;;;;;;3.43;3.23;;;;;;;;;;763901;76;26505;-72
2022/04/13 13:34:12;;;;;;;4.10;3.50;;;;;;;;;;767919;76;26564;-75
2022/04/13 13:35:20;;;;;;;3.27;2.97;;;;;;;;;;767906;76;26607;-72
2022/04/13 13:36:29;;;;;;;3.43;3.03;;;;;;;;;;750691;77;26422;-72
2022/04/13 13:37:43;;;;;;;5.57;3.40;;;;;;;;;;756301;77;26486;-72
2022/04/13 13:38:54;;;;;;;3.27;3.07;;;;;;;;;;759588;77;26619;-72
2022/04/13 13:40:05;;;;;;;3.30;3.00;;;;;;;;;;747808;78;26381;-71
2022/04/13 13:41:11;;;;;;;3.30;3.10;;;;;;;;;;749882;78;26559;-72
2022/04/13 13:42:23;;;;;;;2.90;2.70;;;;;;;;;;751435;77;26913;-73
2022/04/13 13:43:35;;;;;;;4.77;2.87;;;;;;;;;;747292;77;26752;-71
2022/04/13 13:44:41;;;;;;;2.97;2.80;;;;;;;;;;752693;77;26499;-72
2022/04/13 13:45:52;;;;;;;3.80;3.03;;;;;;;;;;752330;78;26952;-72
2022/04/13 13:46:59;;;;;;;3.30;3.10;;;;;;;;;;747685;77;26347;-72
2022/04/13 13:48:12;;;;;;;3.40;3.20;;;;;;;;;;755078;78;26910;-71
2022/04/13 13:49:20;;;;;;;3.37;3.13;;;;;;;;;;750267;77;26444;-73
2022/04/13 13:50:29;;;;;;;5.93;2.97;;;;;;;;;;747266;77;26966;-72
2022/04/13 13:57:28;;;;;;;2.93;2.73;;;;;;;;;;788698;75;26762;-72
2022/04/13 13:58:31;;;;;;;3.37;3.10;;;;;;;;;;788979;74;26892;-73
2022/04/13 13:59:38;;;;;;;4.10;3.70;;;;;;;;;;788221;74;26465;-72
2022/04/13 14:00:41;;;;;;;3.30;3.10;;;;;;;;;;786924;75;26528;-71
2022/04/13 14:01:44;;;;;;;3.13;2.93;;;;;;;;;;783330;75;26722;-73
2022/04/13 14:02:58;;;;;;;3.27;2.97;;;;;;;;;;788909;74;26552;-72
2022/04/13 14:04:08;;;;;;;3.33;3.00;;;;;;;;;;780557;75;26520;-72
2022/04/13 14:05:15;;;;;;;3.40;3.20;;;;;;;;;;782529;74;26476;-73
2022/04/13 14:06:20;;;;;;;3.37;3.17;;;;;;;;;;788917;74;26427;-72
2022/04/13 14:07:28;;;;;;;3.17;2.90;;;;;;;;;;788273;74;26890;-73
2022/04/13 14:08:34;;;;;;;3.23;3.03;;;;;;;;;;786621;75;26965;-73
2022/04/13 14:09:44;;;;;;;3.20;3.00;;;;;;;;;;787104;74;26416;-73
2022/04/13 14:10:49;;;;;;;2.90;2.57;;;;;;;;;;788040;74;26482;-71
2022/04/13 14:11:54;;;;;;;2.93;2.73;;;;;;;;;;785905;74;26475;-73
2022/04/13 14:12:58;;;;;;;3.43;3.03;;;;;;;;;;783523;75;26247;-71
2022/04/13 14:14:06;;;;;;;3.60;3.30;;;;;;;;;;787031;74;26786;-72
2022/04/13 14:15:11;;;;;;;4.77;4.40;;;;;;;;;;782871;75;27034;-73
2022/04/13 14:16:17;;;;;;;5.00;4.60;;;;;;;;;;787769;74;26557;-71
2022/04/13 14:17:23;;;;;;;4.67;4.20;;;;;;;;;;790254;75;26981;-72
2022/04/13 14:18:27;;;;;;;4.87;4.40;;;;;;;;;;783127;75;26410;-72
2022/04/13 14:19:34;;;;;;;4.40;4.00;;;;;;;;;;788320;74;26485;-73
2022/04/13 14:20:41;;;;;;;4.27;3.70;;;;;;;;;;770206;76;26696;-74
2022/04/13 14:27:20;;;;;;;3.03;2.73;;;;;;;;;;797331;73;26273;-72
2022/04/13 14:28:24;;;;;;;3.53;3.23;;;;;;;;;;795917;74;26453;-72
2022/04/13 14:29:28;;;;;;;3.60;3.23;;;;;;;;;;802321;73;26447;-72
2022/04/13 14:31:59;;;;;;;5.77;3.60;;;;;;;;;;803237;72;26470;-71
2022/04/13 14:33:02;;;;;;;3.30;3.10;;;;;;;;;;810971;72;26405;-72
2022/04/13 14:34:08;;;;;;;3.30;3.10;;;;;;;;;;821641;71;26406;-71
2022/04/13 14:35:14;;;;;;;3.30;3.10;;;;;;;;;;809320;72;26533;-72
2022/04/13 14:36:18;;;;;;;3.67;3.33;;;;;;;;;;806331;72;26874;-73
2022/04/13 14:37:25;;;;;;;3.50;3.20;;;;;;;;;;803889;72;26523;-71
2022/04/13 14:38:32;;;;;;;3.70;3.40;;;;;;;;;;807352;72;26466;-73
2022/04/13 14:39:37;;;;;;;3.73;3.43;;;;;;;;;;805480;72;27054;-72
2022/04/13 14:43:25;;;;;;;3.50;3.20;;;;;;;;;;781774;73;26275;-71
2022/04/13 14:44:29;;;;;;;3.20;2.90;;;;;;;;;;777695;74;26744;-71
2022/04/13 14:45:32;;;;;;;8.40;3.40;;;;;;;;;;776043;73;26762;-71
2022/04/13 14:46:36;;;;;;;3.92;3.52;;;;;;;;;;780359;75;26368;-73
2022/04/13 14:47:49;;;;;;;3.27;2.95;;;;;;;;;;781550;75;26387;-72
2022/04/13 14:48:56;;;;;;;3.27;3.08;;;;;;;;;;775693;76;26296;-72
2022/04/13 14:50:07;;;;;;;4.10;3.30;;;;;;;;;;768421;76;26325;-72
2022/04/13 14:51:16;;;;;;;3.58;3.27;;;;;;;;;;775287;75;26489;-72
2022/04/13 14:52:18;;;;;;;3.30;3.10;;;;;;;;;;773667;76;26239;-73
2022/04/13 14:53:22;;;;;;;3.55;3.25;;;;;;;;;;774176;75;26244;-71
2022/04/13 14:54:27;;;;;;;3.15;2.95;;;;;;;;;;775331;76;26255;-72
2022/04/13 14:55:31;;;;;;;3.70;3.40;;;;;;;;;;776059;76;26289;-71
2022/04/13 14:56:39;;;;;;;3.42;3.05;;;;;;;;;;769238;76;26701;-72
2022/04/13 14:57:43;;;;;;;6.00;3.95;;;;;;;;;;775093;76;26702;-71
2022/04/13 14:58:46;;;;;;;4.60;4.20;;;;;;;;;;774912;76;26239;-72
2022/04/13 15:02:58;;;;;;;3.92;3.62;;;;;;;;;;761118;77;26288;-71
2022/04/13 15:04:03;;;;;;;4.00;3.70;;;;;;;;;;756890;77;26352;-72
2022/04/13 15:05:14;;;;;;;3.83;3.52;;;;;;;;;;766568;77;26341;-72
2022/04/13 15:06:20;;;;;;;3.90;3.60;;;;;;;;;;765859;77;26252;-71
2022/04/13 15:07:25;;;;;;;3.77;3.55;;;;;;;;;;759551;75;26393;-72
2022/04/13 15:08:28;;;;;;;4.20;3.90;;;;;;;;;;753650;76;26727;-72
2022/04/13 15:14:04;;;;;;;3.75;3.45;;;;;;;;;;785962;75;26210;-72
2022/04/13 15:15:10;;;;;;;3.58;3.27;;;;;;;;;;782110;74;26313;-72
2022/04/13 15:16:12;;;;;;;3.40;3.20;;;;;;;;;;783209;75;26243;-71
2022/04/13 15:17:15;;;;;;;5.80;3.50;;;;;;;;;;784738;75;26308;-71
2022/04/13 15:18:22;;;;;;;3.05;2.85;;;;;;;;;;806754;73;26227;-72
2022/04/13 15:22:18;;;;;;;3.50;3.20;;;;;;;;;;787907;75;27043;-73
2022/04/13 15:23:20;;;;;;;3.47;3.27;;;;;;;;;;783164;75;26239;-72
2022/04/13 15:24:26;;;;;;;3.52;3.22;;;;;;;;;;786902;75;26380;-74
2022/04/13 15:25:30;;;;;;;4.08;3.77;;;;;;;;;;785838;75;26329;-71
2022/04/13 15:26:35;;;;;;;5.70;5.03;;;;;;;;;;787841;75;26254;-71
2022/04/13 15:27:45;;;;;;;8.15;5.20;;;;;;;;;;786562;75;26247;-72
2022/04/13 15:33:01;;;;;;;3.80;3.50;;;;;;;;;;766865;76;26251;-74
2022/04/13 15:34:05;;;;;;;4.10;3.70;;;;;;;;;;751800;78;26323;-75
2022/04/13 15:35:18;;;;;;;4.40;4.00;;;;;;;;;;734937;78;26286;-72
2022/04/13 15:36:23;;;;;;;4.97;4.58;;;;;;;;;;760909;76;26272;-72
2022/04/13 15:37:27;;;;;;;4.20;3.80;;;;;;;;;;757221;77;26353;-72
2022/04/13 15:38:31;;;;;;;4.30;3.92;;;;;;;;;;746298;78;26739;-72
2022/04/13 15:42:32;;;;;;;3.98;3.67;;;;;;;;;;734102;79;26307;-72
2022/04/13 15:43:38;;;;;;;4.30;3.90;;;;;;;;;;742662;79;26278;-71
2022/04/13 15:44:44;;;;;;;4.70;4.30;;;;;;;;;;750247;79;26272;-71
2022/04/13 15:45:51;;;;;;;3.47;3.17;;;;;;;;;;747425;79;26779;-72
2022/04/13 15:46:59;;;;;;;3.30;3.10;;;;;;;;;;744227;79;26355;-72
2022/04/13 15:48:05;;;;;;;3.47;3.27;;;;;;;;;;748230;78;26272;-71
2022/04/13 15:49:10;;;;;;;4.90;3.85;;;;;;;;;;746861;78;26282;-71
2022/04/13 16:01:13;;;;;;;5.12;4.67;;;;;;;;;;748662;78;26193;-71
2022/04/13 16:02:19;;;;;;;4.78;4.30;;;;;;;;;;748356;78;26879;-72
2022/04/13 16:03:24;;;;;;;4.85;3.85;;;;;;;;;;750883;77;26488;-72
2022/04/13 16:04:29;;;;;;;5.20;4.15;;;;;;;;;;755594;77;26760;-71
2022/04/13 16:05:32;;;;;;;4.20;3.80;;;;;;;;;;751850;77;26388;-71
2022/04/13 16:06:36;;;;;;;4.20;3.80;;;;;;;;;;750154;77;26268;-71
2022/04/13 16:07:41;;;;;;;3.90;3.60;;;;;;;;;;754899;77;26311;-72
2022/04/13 16:12:02;;;;;;;4.00;3.70;;;;;;;;;;762812;77;26634;-72
2022/04/13 16:13:06;;;;;;;4.80;3.90;;;;;;;;;;784130;75;26294;-72
2022/04/13 16:14:14;;;;;;;3.77;3.47;;;;;;;;;;784401;75;26224;-73
2022/04/13 16:15:18;;;;;;;4.70;4.03;;;;;;;;;;786453;74;26236;-71
2022/04/13 16:16:23;;;;;;;4.47;4.08;;;;;;;;;;787159;75;26286;-72
2022/04/13 16:17:28;;;;;;;4.62;4.05;;;;;;;;;;787658;75;26344;-72
2022/04/13 16:21:03;;;;;;;4.60;4.20;;;;;;;;;;787940;75;26209;-72
2022/04/13 16:22:09;;;;;;;4.87;4.03;;;;;;;;;;784906;74;26300;-73
2022/04/13 16:23:15;;;;;;;5.70;4.22;;;;;;;;;;787863;75;26308;-72
2022/04/13 16:24:18;;;;;;;6.45;4.12;;;;;;;;;;789974;75;26695;-76
2022/04/13 16:25:24;;;;;;;7.72;6.10;;;;;;;;;;787813;74;26301;-71
2022/04/13 16:26:28;;;;;;;5.15;4.75;;;;;;;;;;787124;75;26320;-73
2022/04/13 16:27:33;;;;;;;4.80;4.40;;;;;;;;;;787625;75;26239;-71
2022/04/13 16:30:23;;;;;;;4.95;4.55;;;;;;;;;;788005;73;26372;-72
2022/04/13 16:31:26;;;;;;;5.40;4.90;;;;;;;;;;785625;75;26366;-72
2022/04/13 16:32:30;;;;;;;5.03;4.50;;;;;;;;;;784876;75;26231;-73
2022/04/13 16:33:33;;;;;;;5.03;4.15;;;;;;;;;;785896;75;26235;-71
2022/04/13 16:34:56;;;;;;;5.12;4.33;;;;;;;;;;786269;75;26243;-73
2022/04/13 16:36:02;;;;;;;5.22;4.72;;;;;;;;;;786518;75;26223;-72
2022/04/13 16:37:05;;;;;;;4.70;4.15;;;;;;;;;;786411;75;26689;-72
2022/04/13 16:38:08;;;;;;;5.05;4.55;;;;;;;;;;786426;75;26227;-72
2022/04/13 16:41:10;;;;;;;5.45;4.47;;;;;;;;;;777043;76;26257;-72
2022/04/13 16:45:46;;;;;;;5.90;4.97;;;;;;;;;;715551;82;26836;-75
2022/04/13 16:46:51;;;;;;;5.37;4.55;;;;;;;;;;715663;83;26350;-71
2022/04/13 16:48:00;;;;;;;4.87;4.47;;;;;;;;;;726058;78;26400;-72
2022/04/13 16:52:46;;;;;;;5.72;5.22;;;;;;;;;;775769;76;26268;-71
2022/04/13 16:53:51;;;;;;;6.17;5.55;;;;;;;;;;775527;76;26243;-70
2022/04/13 16:54:55;;;;;;;6.28;4.83;;;;;;;;;;774946;76;26234;-73
2022/04/13 16:56:02;;;;;;;5.37;4.97;;;;;;;;;;775278;76;26311;-71
2022/04/13 16:57:09;;;;;;;6.00;4.95;;;;;;;;;;775338;76;26300;-71
2022/04/13 17:00:23;;;;;;;5.83;4.80;;;;;;;;;;775467;76;26612;-72
2022/04/13 17:01:28;;;;;;;5.80;5.00;;;;;;;;;;770794;76;26242;-72
2022/04/13 17:02:39;;;;;;;5.45;4.95;;;;;;;;;;770313;76;26246;-71
2022/04/13 17:03:58;;;;;;;7.33;4.60;;;;;;;;;;770758;76;26316;-72
2022/04/13 17:05:10;;;;;;;6.17;4.87;;;;;;;;;;771600;76;26242;-72
2022/04/13 17:06:21;;;;;;;5.92;4.92;;;;;;;;;;770735;77;26300;-71
2022/04/13 17:07:30;;;;;;;6.67;4.83;;;;;;;;;;770788;76;24313;-72
2022/04/13 17:12:05;;;;;;;5.70;4.97;;;;;;;;;;769182;77;26204;-75